createdAt,value
2019-05-30T00:02:00.390Z,0.40
2019-05-30T00:04:48.102Z,0.40
2019-05-30T00:07:45.673Z,0.40
2019-05-30T00:10:33.009Z,0.27
2019-05-30T00:13:29.610Z,0.40
2019-05-30T00:16:16.693Z,0.30
2019-05-30T00:19:11.080Z,0.23
2019-05-30T00:21:58.727Z,0.30
2019-05-30T00:24:53.048Z,0.33
2019-05-30T00:27:41.990Z,0.30
2019-05-30T00:30:35.819Z,0.20
2019-05-30T00:33:25.877Z,0.30
2019-05-30T00:36:20.279Z,0.20
2019-05-30T00:39:07.914Z,0.50
2019-05-30T00:42:02.286Z,0.20
2019-05-30T00:44:49.922Z,0.20
2019-05-30T00:47:45.719Z,0.20
2019-05-30T00:50:41.799Z,0.27
2019-05-30T00:53:36.661Z,0.20
2019-05-30T00:56:26.468Z,0.27
2019-05-30T00:59:23.328Z,0.20
2019-05-30T01:02:09.815Z,0.10
2019-05-30T01:05:07.900Z,0.30
2019-05-30T01:08:03.311Z,0.30
2019-05-30T01:10:58.966Z,0.37
2019-05-30T01:13:46.555Z,0.10
2019-05-30T01:16:42.741Z,0.20
2019-05-30T01:19:29.283Z,0.30
2019-05-30T01:22:24.061Z,0.40
2019-05-30T01:25:11.675Z,0.10
2019-05-30T01:28:06.086Z,0.20
2019-05-30T01:31:00.259Z,0.27
2019-05-30T01:33:51.083Z,0.20
2019-05-30T01:36:38.189Z,0.20
2019-05-30T01:39:33.045Z,0.10
2019-05-30T01:42:20.305Z,0.30
2019-05-30T01:45:18.186Z,0.20
2019-05-30T01:48:06.429Z,0.20
2019-05-30T01:51:02.431Z,0.20
2019-05-30T01:53:58.377Z,0.20
2019-05-30T01:56:52.484Z,0.10
2019-05-30T01:59:39.478Z,0.10
2019-05-30T02:02:34.204Z,0.20
2019-05-30T02:05:21.377Z,0.20
2019-05-30T02:08:17.274Z,0.20
2019-05-30T02:11:05.470Z,0.10
2019-05-30T02:14:07.650Z,0.20
2019-05-30T02:16:54.825Z,0.30
2019-05-30T02:19:48.964Z,0.13
2019-05-30T02:22:35.957Z,0.20
2019-05-30T02:25:29.571Z,0.40
2019-05-30T02:28:16.846Z,0.10
2019-05-30T02:31:12.195Z,0.27
2019-05-30T02:34:00.994Z,0.20
2019-05-30T02:36:56.464Z,0.30
2019-05-30T02:39:43.986Z,0.40
2019-05-30T02:42:38.833Z,0.17
2019-05-30T02:45:26.186Z,0.17
2019-05-30T02:48:20.930Z,0.37
2019-05-30T02:51:10.122Z,0.30
2019-05-30T02:54:04.580Z,0.30
2019-05-30T02:57:01.214Z,0.20
2019-05-30T02:59:55.560Z,0.40
2019-05-30T03:02:43.113Z,0.30
2019-05-30T03:05:38.158Z,0.27
2019-05-30T03:08:25.470Z,0.40
2019-05-30T03:11:19.260Z,0.40
2019-05-30T03:14:08.861Z,0.20
2019-05-30T03:17:04.787Z,0.30
2019-05-30T03:19:52.534Z,0.20
2019-05-30T03:22:46.244Z,0.30
2019-05-30T03:25:33.615Z,0.40
2019-05-30T03:28:28.168Z,0.40
2019-05-30T03:31:26.774Z,0.50
2019-05-30T03:34:25.530Z,0.50
2019-05-30T03:37:08.494Z,0.30
2019-05-30T03:40:01.918Z,0.50
2019-05-30T03:42:49.380Z,0.40
2019-05-30T03:46:04.072Z,0.40
2019-05-30T03:48:57.275Z,0.40
2019-05-30T03:51:53.853Z,0.40
2019-05-30T03:54:42.977Z,0.40
2019-05-30T03:57:38.636Z,0.40
2019-05-30T04:00:35.078Z,0.47
2019-05-30T04:03:40.321Z,0.40
2019-05-30T04:06:32.299Z,0.37
2019-05-30T04:09:27.153Z,0.20
2019-05-30T04:12:20.381Z,0.40
2019-05-30T04:15:17.158Z,0.50
2019-05-30T04:18:04.324Z,0.30
2019-05-30T04:21:01.472Z,0.40
2019-05-30T04:23:48.921Z,0.30
2019-05-30T04:26:43.245Z,0.50
2019-05-30T04:29:30.864Z,0.30
2019-05-30T04:32:24.558Z,0.40
2019-05-30T04:35:12.351Z,0.40
2019-05-30T04:38:08.658Z,0.27
2019-05-30T04:40:56.152Z,0.40
2019-05-30T04:43:50.841Z,0.47
2019-05-30T04:46:39.483Z,0.53
2019-05-30T04:49:40.482Z,0.33
2019-05-30T04:52:28.233Z,0.50
2019-05-30T04:55:49.431Z,0.50
2019-05-30T04:58:31.522Z,1.30
2019-05-30T05:01:25.956Z,1.00
2019-05-30T05:04:19.693Z,0.53
2019-05-30T05:07:17.821Z,0.60
2019-05-30T05:10:07.313Z,0.67
2019-05-30T05:13:01.595Z,0.57
2019-05-30T05:15:48.859Z,0.47
2019-05-30T05:18:44.211Z,0.67
2019-05-30T05:21:31.408Z,0.47
2019-05-30T05:24:26.204Z,0.57
2019-05-30T05:27:15.542Z,0.40
2019-05-30T05:30:08.811Z,0.70
2019-05-30T05:32:56.012Z,0.40
2019-05-30T05:35:50.575Z,0.40
2019-05-30T05:38:37.496Z,0.60
2019-05-30T05:41:52.433Z,0.67
2019-05-30T05:44:42.939Z,0.70
2019-05-30T05:47:37.208Z,0.67
2019-05-30T05:50:24.641Z,0.60
2019-05-30T05:53:18.763Z,0.60
2019-05-30T05:56:16.810Z,0.50
2019-05-30T05:59:14.365Z,0.30
2019-05-30T06:02:01.892Z,0.60
2019-05-30T06:04:55.543Z,0.60
2019-05-30T06:07:50.253Z,0.60
2019-05-30T06:10:47.247Z,0.40
2019-05-30T06:13:34.552Z,0.50
2019-05-30T06:16:31.669Z,0.53
2019-05-30T06:19:19.122Z,0.63
2019-05-30T06:22:33.815Z,0.50
2019-05-30T06:25:24.009Z,0.60
2019-05-30T06:28:17.876Z,0.53
2019-05-30T06:31:05.411Z,0.63
2019-05-30T06:34:00.275Z,0.53
2019-05-30T06:36:47.868Z,0.40
2019-05-30T06:39:41.755Z,0.60
2019-05-30T06:42:30.211Z,0.60
2019-05-30T06:45:25.607Z,0.63
2019-05-30T06:48:13.899Z,0.40
2019-05-30T06:51:07.846Z,0.70
2019-05-30T06:53:55.405Z,0.53
2019-05-30T06:56:59.179Z,0.70
2019-05-30T06:59:48.139Z,1.00
2019-05-30T07:02:46.641Z,0.97
2019-05-30T07:05:34.931Z,0.70
2019-05-30T07:08:29.466Z,0.70
2019-05-30T07:11:24.764Z,0.60
2019-05-30T07:14:19.273Z,0.63
2019-05-30T07:17:06.812Z,0.50
2019-05-30T07:20:00.681Z,0.80
2019-05-30T07:22:48.103Z,0.60
2019-05-30T07:25:42.077Z,0.70
2019-05-30T07:28:29.949Z,0.60
2019-05-30T07:31:27.986Z,0.83
2019-05-30T07:34:15.421Z,0.80
2019-05-30T07:37:09.296Z,0.90
2019-05-30T07:39:56.573Z,0.90
2019-05-30T07:42:51.209Z,0.73
2019-05-30T07:45:57.710Z,0.70
2019-05-30T07:48:43.254Z,0.70
2019-05-30T07:51:30.686Z,0.57
2019-05-30T07:54:27.003Z,0.87
2019-05-30T07:57:14.293Z,0.80
2019-05-30T08:00:11.656Z,0.60
2019-05-30T08:02:58.913Z,0.80
2019-05-30T08:05:53.426Z,0.70
2019-05-30T08:08:40.922Z,0.70
2019-05-30T08:11:36.527Z,0.77
2019-05-30T08:14:31.086Z,0.50
2019-05-30T08:17:25.208Z,1.00
2019-05-30T08:20:13.250Z,1.20
2019-05-30T08:23:09.835Z,0.90
2019-05-30T08:25:56.990Z,0.90
2019-05-30T08:28:50.867Z,0.70
2019-05-30T08:31:38.901Z,1.00
2019-05-30T08:34:36.691Z,0.47
2019-05-30T08:37:24.133Z,0.70
2019-05-30T08:40:18.305Z,0.70
2019-05-30T08:43:05.868Z,0.70
2019-05-30T08:46:00.648Z,0.80
2019-05-30T08:48:48.160Z,0.60
2019-05-30T08:51:41.825Z,0.67
2019-05-30T08:54:30.268Z,0.83
2019-05-30T08:57:27.308Z,0.70
2019-05-30T09:00:14.943Z,0.90
2019-05-30T09:03:08.419Z,0.80
2019-05-30T09:06:03.337Z,1.13
2019-05-30T09:08:51.062Z,0.70
2019-05-30T09:11:39.314Z,0.83
2019-05-30T09:14:34.777Z,0.73
2019-05-30T09:17:28.463Z,0.80
2019-05-30T09:20:24.214Z,0.70
2019-05-30T09:23:11.816Z,0.70
2019-05-30T09:26:06.436Z,0.80
2019-05-30T09:28:53.647Z,1.20
2019-05-30T09:31:48.653Z,1.10
2019-05-30T09:34:36.221Z,1.00
2019-05-30T09:37:30.044Z,1.10
2019-05-30T09:40:17.324Z,0.87
2019-05-30T09:43:13.554Z,0.90
2019-05-30T09:46:00.752Z,0.83
2019-05-30T09:48:54.396Z,0.70
2019-05-30T09:51:42.544Z,0.67
2019-05-30T09:54:37.386Z,0.63
2019-05-30T09:57:24.334Z,0.97
2019-05-30T10:00:20.608Z,0.80
2019-05-30T10:03:07.850Z,0.80
2019-05-30T10:06:05.319Z,0.80
2019-05-30T10:08:53.101Z,0.87
2019-05-30T10:11:49.263Z,1.03
2019-05-30T10:14:36.760Z,0.90
2019-05-30T10:17:35.635Z,0.70
2019-05-30T10:20:29.733Z,0.80
2019-05-30T10:23:23.901Z,0.80
2019-05-30T10:26:11.391Z,0.90
2019-05-30T10:29:06.073Z,0.60
2019-05-30T10:31:53.270Z,0.63
2019-05-30T10:34:47.903Z,0.80
2019-05-30T10:37:35.476Z,0.80
2019-05-30T10:40:32.210Z,0.80
2019-05-30T10:43:18.928Z,0.90
2019-05-30T10:46:13.210Z,0.87
2019-05-30T10:49:00.802Z,1.00
2019-05-30T10:51:59.454Z,1.27
2019-05-30T10:54:49.348Z,0.77
2019-05-30T10:57:42.621Z,0.80
2019-05-30T11:00:31.481Z,0.90
2019-05-30T11:03:25.958Z,0.83
2019-05-30T11:06:27.687Z,0.67
2019-05-30T11:09:22.318Z,0.50
2019-05-30T11:12:10.037Z,0.80
2019-05-30T11:15:05.219Z,0.70
2019-05-30T11:17:53.385Z,0.80
2019-05-30T11:20:49.893Z,0.90
2019-05-30T11:23:44.586Z,0.90
2019-05-30T11:26:38.075Z,0.87
2019-05-30T11:29:25.316Z,1.10
2019-05-30T11:32:19.830Z,0.90
2019-05-30T11:35:07.142Z,0.90
2019-05-30T11:38:01.604Z,0.90
2019-05-30T11:40:49.301Z,0.70
2019-05-30T11:43:42.987Z,1.03
2019-05-30T11:46:30.303Z,0.90
2019-05-30T11:49:24.949Z,0.90
2019-05-30T11:52:12.263Z,0.80
2019-05-30T11:55:06.699Z,0.80
2019-05-30T11:57:54.657Z,1.00
2019-05-30T12:00:50.164Z,1.10
2019-05-30T12:03:38.203Z,0.90
2019-05-30T12:06:32.791Z,0.90
2019-05-30T12:09:20.446Z,1.17
2019-05-30T12:12:15.217Z,0.90
2019-05-30T12:15:02.676Z,0.80
2019-05-30T12:17:57.510Z,0.90
2019-05-30T12:20:51.708Z,0.90
2019-05-30T12:23:46.154Z,0.70
2019-05-30T12:26:40.216Z,1.00
2019-05-30T12:29:48.055Z,1.10
2019-05-30T12:32:34.897Z,0.90
2019-05-30T12:35:28.883Z,1.00
2019-05-30T12:38:16.327Z,0.90
2019-05-30T12:41:16.654Z,0.93
2019-05-30T12:44:03.873Z,1.03
2019-05-30T12:46:59.206Z,1.10
2019-05-30T12:49:46.630Z,1.03
2019-05-30T12:52:40.448Z,0.73
2019-05-30T12:55:27.827Z,0.97
2019-05-30T12:58:23.189Z,0.63
2019-05-30T13:01:10.946Z,1.10
2019-05-30T13:04:04.717Z,0.87
2019-05-30T13:06:56.440Z,0.80
2019-05-30T13:09:50.911Z,0.70
2019-05-30T13:12:38.141Z,1.03
2019-05-30T13:15:32.730Z,0.90
2019-05-30T13:18:20.339Z,1.00
2019-05-30T13:21:16.274Z,0.80
2019-05-30T13:24:03.838Z,0.90
2019-05-30T13:26:57.836Z,1.07
2019-05-30T13:29:52.133Z,0.80
2019-05-30T13:32:49.497Z,0.80
2019-05-30T13:35:37.059Z,0.93
2019-05-30T13:38:31.247Z,0.77
2019-05-30T13:41:18.508Z,0.80
2019-05-30T13:44:19.852Z,0.90
2019-05-30T13:47:06.950Z,1.00
2019-05-30T13:50:00.919Z,0.93
2019-05-30T13:52:48.130Z,0.80
2019-05-30T13:55:42.405Z,0.60
2019-05-30T13:58:30.034Z,1.00
2019-05-30T14:01:24.836Z,0.90
2019-05-30T14:04:19.498Z,0.93
2019-05-30T14:07:14.199Z,0.80
2019-05-30T14:10:02.441Z,0.80
2019-05-30T14:12:57.113Z,0.70
2019-05-30T14:15:44.673Z,0.83
2019-05-30T14:18:39.051Z,0.70
2019-05-30T14:21:26.642Z,0.90
2019-05-30T14:24:20.793Z,1.00
2019-05-30T14:27:08.110Z,0.70
2019-05-30T14:30:03.087Z,0.60
2019-05-30T14:32:58.200Z,0.80
2019-05-30T14:35:52.573Z,0.80
2019-05-30T14:38:39.897Z,1.00
2019-05-30T14:41:34.067Z,1.00
2019-05-30T14:44:21.526Z,0.77
2019-05-30T14:47:16.897Z,0.90
2019-05-30T14:50:10.928Z,0.77
2019-05-30T14:53:06.729Z,0.80
2019-05-30T14:55:54.302Z,0.50
2019-05-30T14:58:55.272Z,0.83
2019-05-30T15:01:42.450Z,0.80
2019-05-30T15:04:36.837Z,0.77
2019-05-30T15:07:24.197Z,0.57
2019-05-30T15:10:18.736Z,0.60
2019-05-30T15:13:06.133Z,0.80
2019-05-30T15:16:00.532Z,0.93
2019-05-30T15:18:48.043Z,0.90
2019-05-30T15:21:42.885Z,0.90
2019-05-30T15:24:30.390Z,0.90
2019-05-30T15:27:25.270Z,0.77
2019-05-30T15:30:12.864Z,1.00
2019-05-30T15:33:08.329Z,0.60
2019-05-30T15:36:02.313Z,0.40
2019-05-30T15:38:59.373Z,0.70
2019-05-30T15:41:46.609Z,0.70
2019-05-30T15:44:40.850Z,0.77
2019-05-30T15:47:34.746Z,0.57
2019-05-30T15:50:31.104Z,0.73
2019-05-30T15:53:19.263Z,1.13
2019-05-30T15:56:15.373Z,0.80
2019-05-30T15:59:02.062Z,0.87
2019-05-30T16:01:57.028Z,0.93
2019-05-30T16:04:44.455Z,0.80
2019-05-30T16:07:37.975Z,0.67
2019-05-30T16:10:25.524Z,0.87
2019-05-30T16:13:19.476Z,0.90
2019-05-30T16:16:39.348Z,0.80
2019-05-30T16:19:27.326Z,0.70
2019-05-30T16:22:16.153Z,0.60
2019-05-30T16:25:11.880Z,0.97
2019-05-30T16:27:58.892Z,0.70
2019-05-30T16:30:52.617Z,0.70
2019-05-30T16:33:40.271Z,0.80
2019-05-30T16:36:33.582Z,0.80
2019-05-30T16:39:27.370Z,0.90
2019-05-30T16:42:22.357Z,0.60
2019-05-30T16:45:09.875Z,0.67
2019-05-30T16:48:04.053Z,0.70
2019-05-30T16:50:51.569Z,0.77
2019-05-30T16:53:48.023Z,1.00
2019-05-30T16:56:35.777Z,0.60
2019-05-30T16:59:32.828Z,0.70
2019-05-30T17:02:20.838Z,0.70
2019-05-30T17:05:16.305Z,0.80
2019-05-30T17:08:12.116Z,0.50
2019-05-30T17:11:07.146Z,0.70
2019-05-30T17:13:54.605Z,0.73
2019-05-30T17:16:48.792Z,0.87
2019-05-30T17:19:39.161Z,0.63
2019-05-30T17:22:32.001Z,0.70
2019-05-30T17:25:19.279Z,0.77
2019-05-30T17:28:15.019Z,0.70
2019-05-30T17:31:02.716Z,0.93
2019-05-30T17:33:58.522Z,1.20
2019-05-30T17:36:45.702Z,1.03
2019-05-30T17:39:39.748Z,1.10
2019-05-30T17:42:34.407Z,1.00
2019-05-30T17:45:29.485Z,0.83
2019-05-30T17:48:17.065Z,1.00
2019-05-30T17:51:12.996Z,0.90
2019-05-30T17:54:00.127Z,0.70
2019-05-30T17:56:54.543Z,0.60
2019-05-30T17:59:41.767Z,0.60
2019-05-30T18:02:37.659Z,0.67
2019-05-30T18:05:25.136Z,0.90
2019-05-30T18:08:20.855Z,0.90
2019-05-30T18:11:07.834Z,0.80
2019-05-30T18:14:01.584Z,0.67
2019-05-30T18:16:49.291Z,0.87
2019-05-30T18:19:43.172Z,0.93
2019-05-30T18:22:33.073Z,1.20
2019-05-30T18:25:27.671Z,0.90
2019-05-30T18:28:22.244Z,0.80
2019-05-30T18:31:16.090Z,0.70
2019-05-30T18:34:03.355Z,0.90
2019-05-30T18:36:57.170Z,1.00
2019-05-30T18:39:45.922Z,0.90
2019-05-30T18:42:40.616Z,0.93
2019-05-30T18:45:35.866Z,0.80
2019-05-30T18:48:29.749Z,0.83
2019-05-30T18:51:17.241Z,0.90
2019-05-30T18:54:13.384Z,0.70
2019-05-30T18:57:00.552Z,0.70
2019-05-30T18:59:54.424Z,0.83
2019-05-30T19:02:41.672Z,0.87
2019-05-30T19:05:36.848Z,0.90
2019-05-30T19:08:25.726Z,0.90
2019-05-30T19:11:28.159Z,0.97
2019-05-30T19:14:08.959Z,0.80
2019-05-30T19:17:03.236Z,0.73
2019-05-30T19:19:51.332Z,0.93
2019-05-30T19:22:45.550Z,1.00
2019-05-30T19:25:33.976Z,1.03
2019-05-30T19:28:28.528Z,1.03
2019-05-30T19:31:16.112Z,1.07
2019-05-30T19:34:10.014Z,0.90
2019-05-30T19:36:57.045Z,1.00
2019-05-30T19:39:50.904Z,1.10
2019-05-30T19:42:40.190Z,1.30
2019-05-30T19:45:34.129Z,0.97
2019-05-30T19:48:28.338Z,0.93
2019-05-30T19:51:22.163Z,1.13
2019-05-30T19:54:16.153Z,1.20
2019-05-30T19:57:09.992Z,1.10
2019-05-30T19:59:57.529Z,1.00
2019-05-30T20:02:51.769Z,1.30
2019-05-30T20:05:38.929Z,1.03
2019-05-30T20:08:46.932Z,1.00
2019-05-30T20:11:22.818Z,1.10
2019-05-30T20:14:17.985Z,1.40
2019-05-30T20:17:06.963Z,1.17
2019-05-30T20:20:01.504Z,1.00
2019-05-30T20:22:49.079Z,1.07
2019-05-30T20:25:46.123Z,1.20
2019-05-30T20:28:34.818Z,1.00
2019-05-30T20:31:29.303Z,1.20
2019-05-30T20:34:16.782Z,1.00
2019-05-30T20:37:10.700Z,1.27
2019-05-30T20:39:58.169Z,1.27
2019-05-30T20:42:52.915Z,1.00
2019-05-30T20:45:45.677Z,1.10
2019-05-30T20:48:36.942Z,1.00
2019-05-30T20:51:34.901Z,1.10
2019-05-30T20:54:28.085Z,1.20
2019-05-30T20:57:16.630Z,1.20
2019-05-30T21:00:15.220Z,1.23
2019-05-30T21:03:02.500Z,1.13
2019-05-30T21:05:56.936Z,0.97
2019-05-30T21:08:51.495Z,1.27
2019-05-30T21:11:47.214Z,1.20
2019-05-30T21:15:03.551Z,1.00
2019-05-30T21:17:58.211Z,1.27
2019-05-30T21:20:46.186Z,1.17
2019-05-30T21:23:40.952Z,1.03
2019-05-30T21:26:28.569Z,1.33
2019-05-30T21:29:25.651Z,1.23
2019-05-30T21:32:13.289Z,1.20
2019-05-30T21:35:07.823Z,1.00
2019-05-30T21:37:55.653Z,1.17
2019-05-30T21:40:52.625Z,1.20
2019-05-30T21:43:40.397Z,1.00
2019-05-30T21:46:34.366Z,1.30
2019-05-30T21:49:21.557Z,1.23
2019-05-30T21:52:23.445Z,1.10
2019-05-30T21:55:10.779Z,1.20
2019-05-30T21:58:05.885Z,1.10
2019-05-30T22:01:04.026Z,1.20
2019-05-30T22:03:58.871Z,1.37
2019-05-30T22:06:48.748Z,1.47
2019-05-30T22:09:43.716Z,1.33
2019-05-30T22:12:31.013Z,1.40
2019-05-30T22:15:26.035Z,1.40
2019-05-30T22:18:13.463Z,1.20
2019-05-30T22:21:07.257Z,1.10
2019-05-30T22:24:01.584Z,1.17
2019-05-30T22:26:55.925Z,0.93
2019-05-30T22:29:44.269Z,1.40
2019-05-30T22:32:40.873Z,1.03
2019-05-30T22:35:49.080Z,1.20
2019-05-30T22:38:42.785Z,1.20
2019-05-30T22:41:30.331Z,1.30
2019-05-30T22:44:25.665Z,1.37
2019-05-30T22:47:16.079Z,1.30
2019-05-30T22:50:13.233Z,1.27
2019-05-30T22:53:00.270Z,1.20
2019-05-30T22:56:01.678Z,1.33
2019-05-30T22:58:50.180Z,1.20
2019-05-30T23:01:44.879Z,1.27
2019-05-30T23:04:35.174Z,1.07
2019-05-30T23:07:29.163Z,1.30
2019-05-30T23:10:16.885Z,1.20
2019-05-30T23:13:11.481Z,1.20
2019-05-30T23:15:58.705Z,1.40
2019-05-30T23:18:52.623Z,1.17
2019-05-30T23:21:45.328Z,1.60
2019-05-30T23:24:40.932Z,1.10
2019-05-30T23:27:28.402Z,1.27
2019-05-30T23:30:22.470Z,1.40
2019-05-30T23:33:09.794Z,1.03
2019-05-30T23:36:10.278Z,1.23
2019-05-30T23:38:58.981Z,1.30
2019-05-30T23:41:53.027Z,1.30
2019-05-30T23:44:42.003Z,1.17
2019-05-30T23:47:36.752Z,1.13
2019-05-30T23:50:24.127Z,1.20
2019-05-30T23:53:17.676Z,1.20
2019-05-30T23:56:05.110Z,1.13
2019-05-30T23:59:05.869Z,1.20
